sensor_id;sensor_type;location;lat;lon;timestamp;P1;durP1;ratioP1;P2;durP2;ratioP2
74904;SDS011;63465;50.862;6.220;2023-07-29T00:01:33;19.37;;;4.50;;
74904;SDS011;63465;50.862;6.220;2023-07-29T00:03:59;3.37;;;3.17;;
74904;SDS011;63465;50.862;6.220;2023-07-29T00:06:24;3.47;;;3.27;;
74904;SDS011;63465;50.862;6.220;2023-07-29T00:08:49;3.00;;;2.80;;
74904;SDS011;63465;50.862;6.220;2023-07-29T00:11:15;3.30;;;3.10;;
74904;SDS011;63465;50.862;6.220;2023-07-29T00:13:40;3.70;;;3.40;;
74904;SDS011;63465;50.862;6.220;2023-07-29T00:16:06;2.80;;;2.70;;
74904;SDS011;63465;50.862;6.220;2023-07-29T00:18:31;2.90;;;2.70;;
74904;SDS011;63465;50.862;6.220;2023-07-29T00:20:57;2.77;;;2.57;;
74904;SDS011;63465;50.862;6.220;2023-07-29T00:23:22;3.23;;;2.30;;
74904;SDS011;63465;50.862;6.220;2023-07-29T00:25:48;3.73;;;2.60;;
74904;SDS011;63465;50.862;6.220;2023-07-29T00:28:13;3.87;;;2.40;;
74904;SDS011;63465;50.862;6.220;2023-07-29T00:30:38;2.37;;;2.27;;
74904;SDS011;63465;50.862;6.220;2023-07-29T00:33:04;2.40;;;2.30;;
74904;SDS011;63465;50.862;6.220;2023-07-29T00:35:29;2.70;;;2.60;;
74904;SDS011;63465;50.862;6.220;2023-07-29T00:37:54;2.20;;;2.10;;
74904;SDS011;63465;50.862;6.220;2023-07-29T00:40:20;3.40;;;2.40;;
74904;SDS011;63465;50.862;6.220;2023-07-29T00:42:48;2.53;;;2.20;;
74904;SDS011;63465;50.862;6.220;2023-07-29T00:45:14;2.00;;;1.90;;
74904;SDS011;63465;50.862;6.220;2023-07-29T00:47:39;2.57;;;2.07;;
74904;SDS011;63465;50.862;6.220;2023-07-29T00:50:06;2.13;;;2.03;;
74904;SDS011;63465;50.862;6.220;2023-07-29T00:52:32;2.37;;;2.27;;
74904;SDS011;63465;50.862;6.220;2023-07-29T00:54:57;2.63;;;2.20;;
74904;SDS011;63465;50.862;6.220;2023-07-29T00:57:23;3.17;;;2.40;;
74904;SDS011;63465;50.862;6.220;2023-07-29T00:59:50;6.20;;;2.37;;
74904;SDS011;63465;50.862;6.220;2023-07-29T01:02:16;2.93;;;2.20;;
74904;SDS011;63465;50.862;6.220;2023-07-29T01:04:41;5.17;;;2.50;;
74904;SDS011;63465;50.862;6.220;2023-07-29T01:07:21;2.20;;;2.10;;
74904;SDS011;63465;50.862;6.220;2023-07-29T01:09:55;3.57;;;2.40;;
74904;SDS011;63465;50.862;6.220;2023-07-29T01:15:32;4.57;;;2.47;;
74904;SDS011;63465;50.862;6.220;2023-07-29T01:18:05;2.70;;;2.20;;
74904;SDS011;63465;50.862;6.220;2023-07-29T01:20:33;1.83;;;1.73;;
74904;SDS011;63465;50.862;6.220;2023-07-29T01:23:02;2.60;;;1.93;;
74904;SDS011;63465;50.862;6.220;2023-07-29T01:25:27;3.40;;;2.20;;
74904;SDS011;63465;50.862;6.220;2023-07-29T01:27:53;6.83;;;1.97;;
74904;SDS011;63465;50.862;6.220;2023-07-29T01:30:19;2.10;;;2.00;;
74904;SDS011;63465;50.862;6.220;2023-07-29T01:32:53;2.80;;;2.10;;
74904;SDS011;63465;50.862;6.220;2023-07-29T01:35:23;8.93;;;2.10;;
74904;SDS011;63465;50.862;6.220;2023-07-29T01:37:56;10.30;;;1.97;;
74904;SDS011;63465;50.862;6.220;2023-07-29T01:40:27;11.50;;;1.70;;
74904;SDS011;63465;50.862;6.220;2023-07-29T01:42:53;2.20;;;1.60;;
74904;SDS011;63465;50.862;6.220;2023-07-29T01:45:19;2.00;;;1.60;;
74904;SDS011;63465;50.862;6.220;2023-07-29T01:47:48;1.93;;;1.53;;
74904;SDS011;63465;50.862;6.220;2023-07-29T01:50:14;2.40;;;1.33;;
74904;SDS011;63465;50.862;6.220;2023-07-29T01:52:39;1.77;;;1.67;;
74904;SDS011;63465;50.862;6.220;2023-07-29T01:55:04;1.00;;;1.00;;
74904;SDS011;63465;50.862;6.220;2023-07-29T01:57:30;1.67;;;1.40;;
74904;SDS011;63465;50.862;6.220;2023-07-29T01:59:55;3.57;;;1.30;;
74904;SDS011;63465;50.862;6.220;2023-07-29T02:02:21;1.50;;;1.40;;
74904;SDS011;63465;50.862;6.220;2023-07-29T02:04:46;1.60;;;1.50;;
74904;SDS011;63465;50.862;6.220;2023-07-29T02:07:16;4.00;;;1.20;;
74904;SDS011;63465;50.862;6.220;2023-07-29T02:09:41;1.27;;;1.27;;
74904;SDS011;63465;50.862;6.220;2023-07-29T02:12:07;1.63;;;1.53;;
74904;SDS011;63465;50.862;6.220;2023-07-29T02:14:32;1.70;;;1.60;;
74904;SDS011;63465;50.862;6.220;2023-07-29T02:16:57;1.60;;;1.40;;
74904;SDS011;63465;50.862;6.220;2023-07-29T02:19:23;2.20;;;2.10;;
74904;SDS011;63465;50.862;6.220;2023-07-29T02:21:48;2.10;;;2.00;;
74904;SDS011;63465;50.862;6.220;2023-07-29T02:24:13;1.77;;;1.67;;
74904;SDS011;63465;50.862;6.220;2023-07-29T02:26:39;2.23;;;2.10;;
74904;SDS011;63465;50.862;6.220;2023-07-29T02:29:04;8.63;;;2.47;;
74904;SDS011;63465;50.862;6.220;2023-07-29T02:31:29;3.00;;;2.30;;
74904;SDS011;63465;50.862;6.220;2023-07-29T02:33:54;2.40;;;2.20;;
74904;SDS011;63465;50.862;6.220;2023-07-29T02:36:20;5.10;;;2.47;;
74904;SDS011;63465;50.862;6.220;2023-07-29T02:38:46;2.00;;;1.90;;
74904;SDS011;63465;50.862;6.220;2023-07-29T02:41:11;3.90;;;2.40;;
74904;SDS011;63465;50.862;6.220;2023-07-29T02:43:37;5.60;;;2.30;;
74904;SDS011;63465;50.862;6.220;2023-07-29T02:46:03;2.40;;;2.20;;
74904;SDS011;63465;50.862;6.220;2023-07-29T02:48:29;3.77;;;2.83;;
74904;SDS011;63465;50.862;6.220;2023-07-29T02:50:55;2.60;;;2.20;;
74904;SDS011;63465;50.862;6.220;2023-07-29T02:53:21;8.83;;;2.50;;
74904;SDS011;63465;50.862;6.220;2023-07-29T02:55:47;2.77;;;2.67;;
74904;SDS011;63465;50.862;6.220;2023-07-29T02:58:12;3.00;;;2.80;;
74904;SDS011;63465;50.862;6.220;2023-07-29T03:00:37;3.30;;;2.93;;
74904;SDS011;63465;50.862;6.220;2023-07-29T03:03:06;2.47;;;2.37;;
74904;SDS011;63465;50.862;6.220;2023-07-29T03:05:32;3.27;;;2.83;;
74904;SDS011;63465;50.862;6.220;2023-07-29T03:07:57;5.83;;;2.70;;
74904;SDS011;63465;50.862;6.220;2023-07-29T03:10:22;4.00;;;2.80;;
74904;SDS011;63465;50.862;6.220;2023-07-29T03:12:48;2.97;;;2.83;;
74904;SDS011;63465;50.862;6.220;2023-07-29T03:15:13;6.70;;;2.73;;
74904;SDS011;63465;50.862;6.220;2023-07-29T03:17:39;7.23;;;3.07;;
74904;SDS011;63465;50.862;6.220;2023-07-29T03:20:04;3.33;;;3.13;;
74904;SDS011;63465;50.862;6.220;2023-07-29T03:22:30;4.43;;;3.13;;
74904;SDS011;63465;50.862;6.220;2023-07-29T03:24:55;3.03;;;2.83;;
74904;SDS011;63465;50.862;6.220;2023-07-29T03:27:21;3.93;;;3.23;;
74904;SDS011;63465;50.862;6.220;2023-07-29T03:29:46;7.30;;;3.70;;
74904;SDS011;63465;50.862;6.220;2023-07-29T03:32:11;9.30;;;3.20;;
74904;SDS011;63465;50.862;6.220;2023-07-29T03:34:37;3.53;;;3.10;;
74904;SDS011;63465;50.862;6.220;2023-07-29T03:37:02;4.00;;;3.70;;
74904;SDS011;63465;50.862;6.220;2023-07-29T03:39:27;4.37;;;3.97;;
74904;SDS011;63465;50.862;6.220;2023-07-29T03:41:53;3.80;;;3.60;;
74904;SDS011;63465;50.862;6.220;2023-07-29T03:44:18;3.87;;;3.60;;
74904;SDS011;63465;50.862;6.220;2023-07-29T03:46:44;4.90;;;3.87;;
74904;SDS011;63465;50.862;6.220;2023-07-29T03:49:09;4.20;;;3.80;;
74904;SDS011;63465;50.862;6.220;2023-07-29T03:51:35;14.67;;;3.97;;
74904;SDS011;63465;50.862;6.220;2023-07-29T03:54:00;4.10;;;3.73;;
74904;SDS011;63465;50.862;6.220;2023-07-29T03:56:26;3.77;;;3.47;;
74904;SDS011;63465;50.862;6.220;2023-07-29T03:58:52;5.40;;;3.30;;
74904;SDS011;63465;50.862;6.220;2023-07-29T04:01:18;3.97;;;3.20;;
74904;SDS011;63465;50.862;6.220;2023-07-29T04:03:44;3.93;;;3.40;;
74904;SDS011;63465;50.862;6.220;2023-07-29T04:06:10;4.10;;;3.80;;
74904;SDS011;63465;50.862;6.220;2023-07-29T04:08:36;5.53;;;4.40;;
74904;SDS011;63465;50.862;6.220;2023-07-29T04:11:01;9.33;;;4.20;;
74904;SDS011;63465;50.862;6.220;2023-07-29T04:13:27;4.93;;;4.53;;
74904;SDS011;63465;50.862;6.220;2023-07-29T04:15:52;6.13;;;5.30;;
74904;SDS011;63465;50.862;6.220;2023-07-29T04:18:17;6.70;;;4.40;;
74904;SDS011;63465;50.862;6.220;2023-07-29T04:20:43;5.10;;;4.70;;
74904;SDS011;63465;50.862;6.220;2023-07-29T04:23:08;8.70;;;4.43;;
74904;SDS011;63465;50.862;6.220;2023-07-29T04:25:33;5.33;;;4.17;;
74904;SDS011;63465;50.862;6.220;2023-07-29T04:27:59;8.80;;;4.07;;
74904;SDS011;63465;50.862;6.220;2023-07-29T04:30:24;4.23;;;3.67;;
74904;SDS011;63465;50.862;6.220;2023-07-29T04:32:49;3.23;;;3.03;;
74904;SDS011;63465;50.862;6.220;2023-07-29T04:35:15;3.77;;;3.43;;
74904;SDS011;63465;50.862;6.220;2023-07-29T04:37:40;3.20;;;3.00;;
74904;SDS011;63465;50.862;6.220;2023-07-29T04:40:06;7.40;;;3.73;;
74904;SDS011;63465;50.862;6.220;2023-07-29T04:42:32;3.90;;;3.50;;
74904;SDS011;63465;50.862;6.220;2023-07-29T04:44:57;4.07;;;3.63;;
74904;SDS011;63465;50.862;6.220;2023-07-29T04:47:22;5.37;;;4.30;;
74904;SDS011;63465;50.862;6.220;2023-07-29T04:49:48;5.90;;;3.70;;
74904;SDS011;63465;50.862;6.220;2023-07-29T04:52:13;9.93;;;3.47;;
74904;SDS011;63465;50.862;6.220;2023-07-29T04:54:39;4.20;;;3.63;;
74904;SDS011;63465;50.862;6.220;2023-07-29T04:57:05;4.37;;;3.30;;
74904;SDS011;63465;50.862;6.220;2023-07-29T04:59:30;5.37;;;4.23;;
74904;SDS011;63465;50.862;6.220;2023-07-29T05:01:55;4.07;;;3.70;;
74904;SDS011;63465;50.862;6.220;2023-07-29T05:04:21;4.30;;;3.50;;
74904;SDS011;63465;50.862;6.220;2023-07-29T05:06:46;7.53;;;4.17;;
74904;SDS011;63465;50.862;6.220;2023-07-29T05:09:12;6.00;;;3.70;;
74904;SDS011;63465;50.862;6.220;2023-07-29T05:11:41;4.17;;;3.87;;
74904;SDS011;63465;50.862;6.220;2023-07-29T05:14:08;4.50;;;4.10;;
74904;SDS011;63465;50.862;6.220;2023-07-29T05:16:34;4.97;;;4.47;;
74904;SDS011;63465;50.862;6.220;2023-07-29T05:19:00;4.77;;;4.30;;
74904;SDS011;63465;50.862;6.220;2023-07-29T05:21:25;7.80;;;4.77;;
74904;SDS011;63465;50.862;6.220;2023-07-29T05:23:50;9.53;;;4.37;;
74904;SDS011;63465;50.862;6.220;2023-07-29T05:26:15;4.53;;;4.13;;
74904;SDS011;63465;50.862;6.220;2023-07-29T05:28:41;12.20;;;4.53;;
74904;SDS011;63465;50.862;6.220;2023-07-29T05:31:06;5.07;;;4.10;;
74904;SDS011;63465;50.862;6.220;2023-07-29T05:33:31;6.43;;;4.20;;
74904;SDS011;63465;50.862;6.220;2023-07-29T05:35:57;4.50;;;4.03;;
74904;SDS011;63465;50.862;6.220;2023-07-29T05:38:22;8.67;;;4.00;;
74904;SDS011;63465;50.862;6.220;2023-07-29T05:40:48;6.10;;;4.20;;
74904;SDS011;63465;50.862;6.220;2023-07-29T05:43:13;4.40;;;3.97;;
74904;SDS011;63465;50.862;6.220;2023-07-29T05:45:39;4.40;;;4.10;;
74904;SDS011;63465;50.862;6.220;2023-07-29T05:48:05;4.27;;;3.97;;
74904;SDS011;63465;50.862;6.220;2023-07-29T05:50:30;12.43;;;3.97;;
74904;SDS011;63465;50.862;6.220;2023-07-29T05:52:55;5.00;;;3.67;;
74904;SDS011;63465;50.862;6.220;2023-07-29T05:55:21;6.40;;;4.10;;
74904;SDS011;63465;50.862;6.220;2023-07-29T05:57:46;6.60;;;4.33;;
74904;SDS011;63465;50.862;6.220;2023-07-29T06:00:12;5.10;;;3.80;;
74904;SDS011;63465;50.862;6.220;2023-07-29T06:02:37;7.33;;;4.17;;
74904;SDS011;63465;50.862;6.220;2023-07-29T06:05:03;4.57;;;4.17;;
74904;SDS011;63465;50.862;6.220;2023-07-29T06:07:29;5.60;;;3.73;;
74904;SDS011;63465;50.862;6.220;2023-07-29T06:09:55;10.53;;;4.37;;
74904;SDS011;63465;50.862;6.220;2023-07-29T06:12:21;15.37;;;3.93;;
74904;SDS011;63465;50.862;6.220;2023-07-29T06:14:46;4.67;;;3.60;;
74904;SDS011;63465;50.862;6.220;2023-07-29T06:17:11;3.50;;;3.20;;
74904;SDS011;63465;50.862;6.220;2023-07-29T06:19:37;2.83;;;2.63;;
74904;SDS011;63465;50.862;6.220;2023-07-29T06:22:03;2.90;;;2.70;;
74904;SDS011;63465;50.862;6.220;2023-07-29T06:24:29;2.37;;;2.20;;
74904;SDS011;63465;50.862;6.220;2023-07-29T06:26:54;4.40;;;2.50;;
74904;SDS011;63465;50.862;6.220;2023-07-29T06:29:19;5.87;;;2.40;;
74904;SDS011;63465;50.862;6.220;2023-07-29T06:31:45;7.50;;;2.83;;
74904;SDS011;63465;50.862;6.220;2023-07-29T06:34:11;2.40;;;2.30;;
74904;SDS011;63465;50.862;6.220;2023-07-29T06:36:36;6.10;;;2.00;;
74904;SDS011;63465;50.862;6.220;2023-07-29T06:39:01;2.30;;;1.90;;
74904;SDS011;63465;50.862;6.220;2023-07-29T06:41:27;2.53;;;2.43;;
74904;SDS011;63465;50.862;6.220;2023-07-29T06:43:52;2.10;;;2.00;;
74904;SDS011;63465;50.862;6.220;2023-07-29T06:46:17;2.47;;;2.27;;
74904;SDS011;63465;50.862;6.220;2023-07-29T06:48:42;4.60;;;2.10;;
74904;SDS011;63465;50.862;6.220;2023-07-29T06:51:08;2.23;;;1.77;;
74904;SDS011;63465;50.862;6.220;2023-07-29T06:53:33;2.40;;;2.20;;
74904;SDS011;63465;50.862;6.220;2023-07-29T06:55:58;2.03;;;1.90;;
74904;SDS011;63465;50.862;6.220;2023-07-29T06:58:24;3.93;;;2.03;;
74904;SDS011;63465;50.862;6.220;2023-07-29T07:00:50;2.10;;;2.00;;
74904;SDS011;63465;50.862;6.220;2023-07-29T07:03:15;2.27;;;2.17;;
74904;SDS011;63465;50.862;6.220;2023-07-29T07:05:40;2.23;;;1.80;;
74904;SDS011;63465;50.862;6.220;2023-07-29T07:08:06;2.17;;;1.90;;
74904;SDS011;63465;50.862;6.220;2023-07-29T07:10:31;3.00;;;1.90;;
74904;SDS011;63465;50.862;6.220;2023-07-29T07:12:58;2.17;;;1.97;;
74904;SDS011;63465;50.862;6.220;2023-07-29T07:15:24;3.70;;;2.57;;
74904;SDS011;63465;50.862;6.220;2023-07-29T07:17:50;2.37;;;2.00;;
74904;SDS011;63465;50.862;6.220;2023-07-29T07:20:16;3.57;;;1.60;;
74904;SDS011;63465;50.862;6.220;2023-07-29T07:22:41;1.70;;;1.60;;
74904;SDS011;63465;50.862;6.220;2023-07-29T07:25:06;1.70;;;1.60;;
74904;SDS011;63465;50.862;6.220;2023-07-29T07:27:32;4.50;;;1.90;;
74904;SDS011;63465;50.862;6.220;2023-07-29T07:29:57;2.80;;;1.80;;
74904;SDS011;63465;50.862;6.220;2023-07-29T07:32:23;3.43;;;1.70;;
74904;SDS011;63465;50.862;6.220;2023-07-29T07:34:48;1.97;;;1.53;;
74904;SDS011;63465;50.862;6.220;2023-07-29T07:37:13;2.03;;;1.93;;
74904;SDS011;63465;50.862;6.220;2023-07-29T07:39:38;1.60;;;1.50;;
74904;SDS011;63465;50.862;6.220;2023-07-29T07:42:04;1.93;;;1.43;;
74904;SDS011;63465;50.862;6.220;2023-07-29T07:44:29;1.83;;;1.37;;
74904;SDS011;63465;50.862;6.220;2023-07-29T07:46:55;3.60;;;1.77;;
74904;SDS011;63465;50.862;6.220;2023-07-29T07:49:20;1.43;;;1.33;;
74904;SDS011;63465;50.862;6.220;2023-07-29T07:51:45;1.67;;;1.30;;
74904;SDS011;63465;50.862;6.220;2023-07-29T07:54:11;1.80;;;1.10;;
74904;SDS011;63465;50.862;6.220;2023-07-29T07:56:36;1.20;;;1.20;;
74904;SDS011;63465;50.862;6.220;2023-07-29T07:59:01;1.40;;;1.03;;
74904;SDS011;63465;50.862;6.220;2023-07-29T08:01:27;1.67;;;1.57;;
74904;SDS011;63465;50.862;6.220;2023-07-29T08:03:52;2.60;;;1.37;;
74904;SDS011;63465;50.862;6.220;2023-07-29T08:06:17;4.20;;;1.40;;
74904;SDS011;63465;50.862;6.220;2023-07-29T08:08:42;2.30;;;1.30;;
74904;SDS011;63465;50.862;6.220;2023-07-29T08:11:08;1.73;;;1.13;;
74904;SDS011;63465;50.862;6.220;2023-07-29T08:13:33;1.23;;;1.13;;
74904;SDS011;63465;50.862;6.220;2023-07-29T08:15:58;3.60;;;1.73;;
74904;SDS011;63465;50.862;6.220;2023-07-29T08:18:24;3.30;;;2.10;;
74904;SDS011;63465;50.862;6.220;2023-07-29T08:20:53;1.80;;;1.70;;
74904;SDS011;63465;50.862;6.220;2023-07-29T08:23:20;4.13;;;1.60;;
74904;SDS011;63465;50.862;6.220;2023-07-29T08:25:50;3.17;;;1.60;;
74904;SDS011;63465;50.862;6.220;2023-07-29T08:28:21;2.27;;;2.07;;
74904;SDS011;63465;50.862;6.220;2023-07-29T08:30:46;1.97;;;1.57;;
74904;SDS011;63465;50.862;6.220;2023-07-29T08:33:12;1.20;;;1.20;;
74904;SDS011;63465;50.862;6.220;2023-07-29T08:35:37;2.23;;;1.80;;
74904;SDS011;63465;50.862;6.220;2023-07-29T08:38:02;1.37;;;1.27;;
74904;SDS011;63465;50.862;6.220;2023-07-29T08:40:29;1.80;;;1.70;;
74904;SDS011;63465;50.862;6.220;2023-07-29T08:42:56;2.10;;;1.73;;
74904;SDS011;63465;50.862;6.220;2023-07-29T08:45:23;3.83;;;1.87;;
74904;SDS011;63465;50.862;6.220;2023-07-29T08:47:50;1.60;;;1.50;;
74904;SDS011;63465;50.862;6.220;2023-07-29T08:50:22;1.40;;;1.30;;
74904;SDS011;63465;50.862;6.220;2023-07-29T08:52:49;1.20;;;1.20;;
74904;SDS011;63465;50.862;6.220;2023-07-29T08:55:17;1.73;;;1.30;;
74904;SDS011;63465;50.862;6.220;2023-07-29T08:57:43;3.37;;;1.50;;
74904;SDS011;63465;50.862;6.220;2023-07-29T09:00:10;1.20;;;1.20;;
74904;SDS011;63465;50.862;6.220;2023-07-29T09:02:36;1.40;;;1.30;;
74904;SDS011;63465;50.862;6.220;2023-07-29T09:05:01;1.40;;;1.27;;
74904;SDS011;63465;50.862;6.220;2023-07-29T09:07:27;1.70;;;1.60;;
74904;SDS011;63465;50.862;6.220;2023-07-29T09:09:53;2.10;;;1.33;;
74904;SDS011;63465;50.862;6.220;2023-07-29T09:12:19;5.03;;;1.73;;
74904;SDS011;63465;50.862;6.220;2023-07-29T09:14:44;2.20;;;1.40;;
74904;SDS011;63465;50.862;6.220;2023-07-29T09:17:09;2.70;;;1.67;;
74904;SDS011;63465;50.862;6.220;2023-07-29T09:19:35;1.60;;;1.50;;
74904;SDS011;63465;50.862;6.220;2023-07-29T09:22:00;1.40;;;1.30;;
74904;SDS011;63465;50.862;6.220;2023-07-29T09:24:26;1.83;;;1.53;;
74904;SDS011;63465;50.862;6.220;2023-07-29T09:26:54;1.77;;;1.57;;
74904;SDS011;63465;50.862;6.220;2023-07-29T09:29:23;1.60;;;1.53;;
74904;SDS011;63465;50.862;6.220;2023-07-29T09:31:48;1.20;;;1.20;;
74904;SDS011;63465;50.862;6.220;2023-07-29T09:34:14;2.70;;;1.47;;
74904;SDS011;63465;50.862;6.220;2023-07-29T09:36:40;2.53;;;2.33;;
74904;SDS011;63465;50.862;6.220;2023-07-29T09:39:10;2.93;;;1.40;;
74904;SDS011;63465;50.862;6.220;2023-07-29T09:41:37;2.17;;;1.57;;
74904;SDS011;63465;50.862;6.220;2023-07-29T09:44:03;1.70;;;1.60;;
74904;SDS011;63465;50.862;6.220;2023-07-29T09:46:33;1.83;;;1.60;;
74904;SDS011;63465;50.862;6.220;2023-07-29T09:49:01;1.47;;;1.37;;
74904;SDS011;63465;50.862;6.220;2023-07-29T09:51:27;5.60;;;1.60;;
74904;SDS011;63465;50.862;6.220;2023-07-29T09:53:52;4.20;;;1.67;;
74904;SDS011;63465;50.862;6.220;2023-07-29T09:56:18;3.93;;;1.70;;
74904;SDS011;63465;50.862;6.220;2023-07-29T09:58:48;3.00;;;1.70;;
74904;SDS011;63465;50.862;6.220;2023-07-29T10:01:14;2.40;;;2.20;;
74904;SDS011;63465;50.862;6.220;2023-07-29T10:03:40;2.70;;;1.70;;
74904;SDS011;63465;50.862;6.220;2023-07-29T10:06:06;1.60;;;1.50;;
74904;SDS011;63465;50.862;6.220;2023-07-29T10:08:32;2.13;;;1.60;;
74904;SDS011;63465;50.862;6.220;2023-07-29T10:11:03;8.63;;;1.87;;
74904;SDS011;63465;50.862;6.220;2023-07-29T10:13:31;2.90;;;1.97;;
74904;SDS011;63465;50.862;6.220;2023-07-29T10:15:57;2.37;;;1.50;;
74904;SDS011;63465;50.862;6.220;2023-07-29T10:18:23;1.97;;;1.77;;
74904;SDS011;63465;50.862;6.220;2023-07-29T10:20:51;1.30;;;1.20;;
74904;SDS011;63465;50.862;6.220;2023-07-29T10:23:18;1.73;;;1.50;;
74904;SDS011;63465;50.862;6.220;2023-07-29T10:25:46;1.40;;;1.30;;
74904;SDS011;63465;50.862;6.220;2023-07-29T10:28:15;1.60;;;1.50;;
74904;SDS011;63465;50.862;6.220;2023-07-29T10:30:41;1.30;;;1.20;;
74904;SDS011;63465;50.862;6.220;2023-07-29T10:33:06;1.27;;;1.27;;
74904;SDS011;63465;50.862;6.220;2023-07-29T10:35:32;1.43;;;1.33;;
74904;SDS011;63465;50.862;6.220;2023-07-29T10:37:58;1.80;;;1.33;;
74904;SDS011;63465;50.862;6.220;2023-07-29T10:40:25;1.97;;;1.20;;
74904;SDS011;63465;50.862;6.220;2023-07-29T10:43:00;1.30;;;1.20;;
74904;SDS011;63465;50.862;6.220;2023-07-29T10:45:28;1.43;;;1.33;;
74904;SDS011;63465;50.862;6.220;2023-07-29T10:48:04;1.40;;;1.30;;
74904;SDS011;63465;50.862;6.220;2023-07-29T10:50:50;2.30;;;1.50;;
74904;SDS011;63465;50.862;6.220;2023-07-29T10:53:16;1.83;;;1.40;;
74904;SDS011;63465;50.862;6.220;2023-07-29T10:55:43;1.67;;;1.57;;
74904;SDS011;63465;50.862;6.220;2023-07-29T10:58:11;1.50;;;1.40;;
74904;SDS011;63465;50.862;6.220;2023-07-29T11:00:39;1.10;;;1.10;;
74904;SDS011;63465;50.862;6.220;2023-07-29T11:03:06;1.57;;;1.47;;
74904;SDS011;63465;50.862;6.220;2023-07-29T11:05:52;4.63;;;1.73;;
74904;SDS011;63465;50.862;6.220;2023-07-29T11:08:28;1.70;;;1.60;;
74904;SDS011;63465;50.862;6.220;2023-07-29T11:11:02;1.60;;;1.50;;
74904;SDS011;63465;50.862;6.220;2023-07-29T11:13:30;1.70;;;1.60;;
74904;SDS011;63465;50.862;6.220;2023-07-29T11:15:56;2.40;;;2.20;;
74904;SDS011;63465;50.862;6.220;2023-07-29T11:18:25;3.97;;;1.50;;
74904;SDS011;63465;50.862;6.220;2023-07-29T11:20:53;2.10;;;1.90;;
74904;SDS011;63465;50.862;6.220;2023-07-29T11:23:19;1.73;;;1.63;;
74904;SDS011;63465;50.862;6.220;2023-07-29T11:25:45;1.50;;;1.40;;
74904;SDS011;63465;50.862;6.220;2023-07-29T11:28:11;3.43;;;1.53;;
74904;SDS011;63465;50.862;6.220;2023-07-29T11:30:38;1.77;;;1.60;;
74904;SDS011;63465;50.862;6.220;2023-07-29T11:33:04;1.50;;;1.40;;
74904;SDS011;63465;50.862;6.220;2023-07-29T11:35:29;1.60;;;1.50;;
74904;SDS011;63465;50.862;6.220;2023-07-29T11:37:57;1.60;;;1.50;;
74904;SDS011;63465;50.862;6.220;2023-07-29T11:40:22;4.63;;;1.50;;
74904;SDS011;63465;50.862;6.220;2023-07-29T11:42:49;1.70;;;1.60;;
74904;SDS011;63465;50.862;6.220;2023-07-29T11:45:16;1.63;;;1.40;;
74904;SDS011;63465;50.862;6.220;2023-07-29T11:47:42;1.90;;;1.80;;
74904;SDS011;63465;50.862;6.220;2023-07-29T11:50:08;1.50;;;1.40;;
74904;SDS011;63465;50.862;6.220;2023-07-29T11:52:36;1.40;;;1.30;;
74904;SDS011;63465;50.862;6.220;2023-07-29T11:55:02;1.57;;;1.47;;
74904;SDS011;63465;50.862;6.220;2023-07-29T11:57:29;1.20;;;1.20;;
74904;SDS011;63465;50.862;6.220;2023-07-29T11:59:55;1.37;;;1.30;;
74904;SDS011;63465;50.862;6.220;2023-07-29T12:02:21;1.73;;;1.63;;
74904;SDS011;63465;50.862;6.220;2023-07-29T12:04:48;1.77;;;1.50;;
74904;SDS011;63465;50.862;6.220;2023-07-29T12:07:14;1.20;;;1.10;;
74904;SDS011;63465;50.862;6.220;2023-07-29T12:09:42;2.70;;;1.70;;
74904;SDS011;63465;50.862;6.220;2023-07-29T12:12:08;1.73;;;1.63;;
74904;SDS011;63465;50.862;6.220;2023-07-29T12:14:34;1.47;;;1.37;;
74904;SDS011;63465;50.862;6.220;2023-07-29T12:17:00;1.77;;;1.67;;
74904;SDS011;63465;50.862;6.220;2023-07-29T12:19:36;1.30;;;1.20;;
74904;SDS011;63465;50.862;6.220;2023-07-29T12:22:03;1.77;;;1.60;;
74904;SDS011;63465;50.862;6.220;2023-07-29T12:24:30;2.80;;;1.40;;
74904;SDS011;63465;50.862;6.220;2023-07-29T12:26:56;1.80;;;1.70;;
74904;SDS011;63465;50.862;6.220;2023-07-29T12:29:21;1.50;;;1.40;;
74904;SDS011;63465;50.862;6.220;2023-07-29T12:31:47;1.60;;;1.50;;
74904;SDS011;63465;50.862;6.220;2023-07-29T12:34:20;2.20;;;2.00;;
74904;SDS011;63465;50.862;6.220;2023-07-29T12:36:49;1.77;;;1.67;;
74904;SDS011;63465;50.862;6.220;2023-07-29T12:39:28;1.60;;;1.50;;
74904;SDS011;63465;50.862;6.220;2023-07-29T12:41:56;1.20;;;1.20;;
74904;SDS011;63465;50.862;6.220;2023-07-29T12:44:23;2.23;;;2.00;;
74904;SDS011;63465;50.862;6.220;2023-07-29T12:46:49;1.70;;;1.60;;
74904;SDS011;63465;50.862;6.220;2023-07-29T12:49:15;1.50;;;1.40;;
74904;SDS011;63465;50.862;6.220;2023-07-29T12:51:40;1.73;;;1.63;;
74904;SDS011;63465;50.862;6.220;2023-07-29T12:54:06;3.77;;;1.80;;
74904;SDS011;63465;50.862;6.220;2023-07-29T12:56:31;1.90;;;1.80;;
74904;SDS011;63465;50.862;6.220;2023-07-29T12:58:58;3.67;;;1.73;;
74904;SDS011;63465;50.862;6.220;2023-07-29T13:01:23;2.00;;;1.80;;
74904;SDS011;63465;50.862;6.220;2023-07-29T13:03:49;3.43;;;1.63;;
74904;SDS011;63465;50.862;6.220;2023-07-29T13:06:14;2.87;;;2.00;;
74904;SDS011;63465;50.862;6.220;2023-07-29T13:08:40;3.10;;;1.90;;
74904;SDS011;63465;50.862;6.220;2023-07-29T13:11:06;6.33;;;2.43;;
74904;SDS011;63465;50.862;6.220;2023-07-29T13:13:31;3.70;;;2.73;;
74904;SDS011;63465;50.862;6.220;2023-07-29T13:15:57;3.30;;;2.70;;
74904;SDS011;63465;50.862;6.220;2023-07-29T13:18:23;3.83;;;3.00;;
74904;SDS011;63465;50.862;6.220;2023-07-29T13:20:48;5.80;;;3.30;;
74904;SDS011;63465;50.862;6.220;2023-07-29T13:23:15;3.03;;;2.80;;
74904;SDS011;63465;50.862;6.220;2023-07-29T13:25:41;3.27;;;2.70;;
74904;SDS011;63465;50.862;6.220;2023-07-29T13:28:06;3.00;;;2.70;;
74904;SDS011;63465;50.862;6.220;2023-07-29T13:30:32;2.53;;;2.43;;
74904;SDS011;63465;50.862;6.220;2023-07-29T13:32:58;4.27;;;2.27;;
74904;SDS011;63465;50.862;6.220;2023-07-29T13:35:23;2.10;;;2.00;;
74904;SDS011;63465;50.862;6.220;2023-07-29T13:37:48;2.73;;;2.03;;
74904;SDS011;63465;50.862;6.220;2023-07-29T13:40:14;2.20;;;2.00;;
74904;SDS011;63465;50.862;6.220;2023-07-29T13:42:39;3.93;;;2.40;;
74904;SDS011;63465;50.862;6.220;2023-07-29T13:45:05;4.47;;;1.97;;
74904;SDS011;63465;50.862;6.220;2023-07-29T13:47:30;2.10;;;1.90;;
74904;SDS011;63465;50.862;6.220;2023-07-29T13:49:56;2.87;;;2.57;;
74904;SDS011;63465;50.862;6.220;2023-07-29T13:52:21;3.40;;;2.00;;
74904;SDS011;63465;50.862;6.220;2023-07-29T13:54:46;1.90;;;1.80;;
74904;SDS011;63465;50.862;6.220;2023-07-29T13:57:11;2.97;;;2.77;;
74904;SDS011;63465;50.862;6.220;2023-07-29T13:59:37;2.50;;;2.10;;
74904;SDS011;63465;50.862;6.220;2023-07-29T14:02:05;4.30;;;2.37;;
74904;SDS011;63465;50.862;6.220;2023-07-29T14:04:31;2.70;;;2.20;;
74904;SDS011;63465;50.862;6.220;2023-07-29T14:06:57;3.80;;;2.13;;
74904;SDS011;63465;50.862;6.220;2023-07-29T14:09:23;5.53;;;2.70;;
74904;SDS011;63465;50.862;6.220;2023-07-29T14:11:48;4.93;;;2.67;;
74904;SDS011;63465;50.862;6.220;2023-07-29T14:14:13;10.97;;;2.37;;
74904;SDS011;63465;50.862;6.220;2023-07-29T14:16:38;2.30;;;2.07;;
74904;SDS011;63465;50.862;6.220;2023-07-29T14:19:04;1.80;;;1.70;;
74904;SDS011;63465;50.862;6.220;2023-07-29T14:21:29;1.93;;;1.83;;
74904;SDS011;63465;50.862;6.220;2023-07-29T14:23:54;2.03;;;1.93;;
74904;SDS011;63465;50.862;6.220;2023-07-29T14:26:20;2.13;;;2.03;;
74904;SDS011;63465;50.862;6.220;2023-07-29T14:28:45;7.93;;;2.40;;
74904;SDS011;63465;50.862;6.220;2023-07-29T14:31:11;2.60;;;2.10;;
74904;SDS011;63465;50.862;6.220;2023-07-29T14:33:36;2.60;;;2.40;;
74904;SDS011;63465;50.862;6.220;2023-07-29T14:36:01;2.50;;;2.30;;
74904;SDS011;63465;50.862;6.220;2023-07-29T14:38:28;2.43;;;2.33;;
74904;SDS011;63465;50.862;6.220;2023-07-29T14:40:53;4.10;;;2.30;;
74904;SDS011;63465;50.862;6.220;2023-07-29T14:43:21;2.10;;;2.00;;
74904;SDS011;63465;50.862;6.220;2023-07-29T14:45:47;2.60;;;2.20;;